Time;durP1;ratioP1;P1;durP2;ratioP2;P2;SDS_P1;SDS_P2;PMS_P1;PMS_P2;Temp;Humidity;BMP_temperature;BMP_pressure;BME280_temperature;BME280_humidity;BME280_pressure;Samples;Min_cycle;Max_cycle;Signal;HPM_P1;HPM_P2
2023/01/24 00:01:25;;;;;;;29.00;17.90;;;;;;;2.47;76.94;103388.84;5116221;28;20186;-69
2023/01/24 00:03:51;;;;;;;25.57;18.27;;;;;;;2.46;77.44;103380.00;5116738;28;20204;-69
2023/01/24 00:06:18;;;;;;;21.37;16.13;;;;;;;2.44;77.58;103386.16;5116063;28;20210;-69
2023/01/24 00:08:44;;;;;;;30.67;18.47;;;;;;;2.49;77.35;103387.06;5116302;28;20205;-69
2023/01/24 00:11:12;;;;;;;26.23;18.00;;;;;;;2.54;77.27;103388.88;5116328;28;20669;-69
2023/01/24 00:13:39;;;;;;;29.60;19.03;;;;;;;2.52;76.97;103381.81;5115995;28;20189;-69
2023/01/24 00:16:14;;;;;;;27.83;18.33;;;;;;;2.47;76.82;103387.06;5115923;28;20178;-69
2023/01/24 00:18:41;;;;;;;28.80;18.83;;;;;;;2.42;77.38;103386.16;5115863;28;20240;-69
2023/01/24 00:21:14;;;;;;;27.90;19.13;;;;;;;2.42;77.31;103380.88;5116420;28;20185;-69
2023/01/24 00:23:49;;;;;;;23.47;17.20;;;;;;;2.41;77.19;103375.56;5115953;28;20217;-69
2023/01/24 00:26:16;;;;;;;22.97;16.60;;;;;;;2.41;78.00;103386.16;5115705;28;20255;-69
2023/01/24 00:28:45;;;;;;;24.73;17.47;;;;;;;2.40;77.94;103379.97;5115655;28;20687;-69
2023/01/24 00:31:12;;;;;;;29.10;18.20;;;;;;;2.44;77.68;103372.94;5097411;28;20202;-69
2023/01/24 00:33:38;;;;;;;27.17;18.13;;;;;;;2.51;77.26;103380.94;5116165;28;20526;-69
2023/01/24 00:36:07;;;;;;;24.90;18.87;;;;;;;2.50;77.64;103379.16;5097276;28;20186;-69
2023/01/24 00:38:34;;;;;;;28.17;18.33;;;;;;;2.44;77.61;103381.78;5097255;28;20316;-69
2023/01/24 00:41:00;;;;;;;23.17;18.30;;;;;;;2.45;77.78;103377.38;5115758;28;20185;-69
2023/01/24 00:43:28;;;;;;;25.63;17.63;;;;;;;2.37;78.01;103379.97;5097132;28;20219;-69
2023/01/24 00:45:55;;;;;;;24.10;17.53;;;;;;;2.40;77.58;103373.81;5115301;28;20204;-69
2023/01/24 00:48:22;;;;;;;24.27;17.30;;;;;;;2.44;77.64;103365.91;5096956;28;20632;-69
2023/01/24 00:50:48;;;;;;;23.97;16.23;;;;;;;2.40;77.91;103356.19;5115290;28;20219;-69
2023/01/24 00:53:15;;;;;;;20.13;15.20;;;;;;;2.37;77.44;103352.63;5096917;28;20199;-69
2023/01/24 00:55:43;;;;;;;19.07;14.87;;;;;;;2.30;77.41;103357.03;5115179;28;20671;-69
2023/01/24 00:58:11;;;;;;;14.97;13.47;;;;;;;2.40;77.50;103350.91;5115314;28;20220;-69
2023/01/24 01:00:38;;;;;;;23.20;14.77;;;;;;;2.32;77.25;103355.25;5096835;28;20193;-69
2023/01/24 01:03:09;;;;;;;15.00;12.53;;;;;;;2.32;76.46;103358.81;5115273;28;20242;-69
2023/01/24 01:05:35;;;;;;;17.33;12.47;;;;;;;2.30;76.30;103359.66;5115196;28;20244;-69
2023/01/24 01:08:02;;;;;;;14.77;12.13;;;;;;;2.29;76.45;103374.63;5095718;28;20210;-69
2023/01/24 01:10:29;;;;;;;13.77;12.37;;;;;;;2.29;76.53;103369.34;5115347;28;20548;-69
2023/01/24 01:12:56;;;;;;;17.17;13.97;;;;;;;2.23;76.94;103374.59;5114853;28;20261;-69
2023/01/24 01:15:23;;;;;;;17.23;13.93;;;;;;;2.25;76.40;103383.44;5115379;28;20196;-69
2023/01/24 01:17:49;;;;;;;14.77;12.77;;;;;;;2.30;75.93;103387.00;5114981;28;20213;-69
2023/01/24 01:20:15;;;;;;;16.17;12.97;;;;;;;2.30;75.84;103387.00;5114679;28;20198;-69
2023/01/24 01:22:42;;;;;;;11.97;10.87;;;;;;;2.29;75.84;103385.19;5096269;28;20212;-69
2023/01/24 01:25:08;;;;;;;15.13;12.77;;;;;;;2.32;75.91;103384.31;5096406;28;20259;-69
2023/01/24 01:27:35;;;;;;;12.80;11.50;;;;;;;2.27;76.37;103386.06;5096325;28;20189;-68
2023/01/24 01:30:01;;;;;;;13.73;12.37;;;;;;;2.32;76.16;103379.94;5114552;28;20269;-69
2023/01/24 01:32:27;;;;;;;15.53;11.87;;;;;;;2.31;76.06;103382.56;5096285;28;20230;-69
2023/01/24 01:34:54;;;;;;;12.73;11.43;;;;;;;2.31;76.06;103382.56;5114433;28;20192;-69
2023/01/24 01:37:20;;;;;;;14.00;12.60;;;;;;;2.32;75.71;103387.88;5114590;28;20191;-69
2023/01/24 01:39:46;;;;;;;12.97;11.70;;;;;;;2.31;75.78;103383.44;5114381;28;20195;-69
2023/01/24 01:42:14;;;;;;;14.80;13.27;;;;;;;2.28;75.80;103382.56;5114323;28;20198;-69
2023/01/24 01:44:43;;;;;;;15.10;12.53;;;;;;;2.29;76.21;103385.19;5114845;28;20205;-69
2023/01/24 01:47:30;;;;;;;16.03;12.40;;;;;;;2.34;76.19;103387.88;5114183;28;20564;-69
2023/01/24 01:50:05;;;;;;;14.10;12.57;;;;;;;2.34;75.49;103380.81;5114780;28;20209;-68
2023/01/24 01:52:36;;;;;;;16.07;13.07;;;;;;;2.29;75.58;103379.91;5114440;28;20177;-69
2023/01/24 01:55:12;;;;;;;17.17;13.00;;;;;;;2.23;75.69;103385.19;5114375;28;20169;-69
2023/01/24 01:57:40;;;;;;;14.23;12.17;;;;;;;2.20;76.25;103379.84;5114614;28;20247;-69
2023/01/24 02:00:09;;;;;;;15.97;13.00;;;;;;;2.20;76.25;103373.69;5114020;28;20287;-69
2023/01/24 02:02:41;;;;;;;16.57;12.17;;;;;;;2.17;75.94;103379.84;5114561;28;20175;-69
2023/01/24 02:05:11;;;;;;;16.70;12.90;;;;;;;2.21;76.41;103379.00;5095698;28;20281;-69
2023/01/24 02:07:47;;;;;;;24.87;13.97;;;;;;;2.22;75.78;103377.22;5095707;28;20218;-69
2023/01/24 02:10:17;;;;;;;14.77;12.90;;;;;;;2.21;75.99;103378.13;5114177;28;20169;-69
2023/01/24 02:12:46;;;;;;;18.23;13.50;;;;;;;2.24;76.04;103372.84;5113829;28;20184;-69
2023/01/24 02:18:07;;;;;;;16.07;12.93;;;;;;;2.18;76.35;103365.78;5113582;28;20206;-68
2023/01/24 02:20:39;;;;;;;15.50;13.37;;;;;;;2.22;75.45;103364.00;5113724;28;20183;-69
2023/01/24 02:23:36;;;;;;;22.27;15.70;;;;;;;2.14;76.17;103371.91;5113543;28;20197;-69
2023/01/24 02:26:09;;;;;;;20.57;14.43;;;;;;;2.23;76.09;103369.31;5095365;28;20206;-69
2023/01/24 02:28:38;;;;;;;22.47;14.13;;;;;;;2.20;75.86;103363.13;5095963;28;20209;-68
2023/01/24 02:31:05;;;;;;;24.03;16.60;;;;;;;2.18;75.99;103364.84;5113948;28;20529;-68
2023/01/24 02:33:33;;;;;;;16.20;14.50;;;;;;;2.22;76.03;103361.38;5095484;28;20193;-68
2023/01/24 02:36:25;;;;;;;20.83;15.27;;;;;;;2.13;76.41;103359.53;5095366;28;20190;-69
2023/01/24 02:39:00;;;;;;;16.93;14.20;;;;;;;2.17;76.53;103357.81;5114093;28;20297;-69
2023/01/24 02:41:42;;;;;;;21.30;14.37;;;;;;;2.19;76.20;103353.44;5113877;28;20586;-69
2023/01/24 02:44:12;;;;;;;17.80;15.03;;;;;;;2.20;76.12;103357.81;5096203;28;20186;-69
2023/01/24 02:46:43;;;;;;;20.20;14.03;;;;;;;2.13;76.66;103352.53;5095248;28;20245;-69
2023/01/24 02:49:10;;;;;;;21.90;15.80;;;;;;;2.10;76.04;103357.75;5095178;28;20223;-69
2023/01/24 02:54:22;;;;;;;18.27;14.63;;;;;;;2.05;75.32;103362.16;5113717;28;20715;-69
2023/01/24 02:59:34;;;;;;;16.10;13.63;;;;;;;2.05;75.18;103356.84;5095036;28;20209;-69
2023/01/24 03:02:00;;;;;;;18.03;13.77;;;;;;;2.08;75.27;103354.25;5113374;28;20193;-69
2023/01/24 03:04:27;;;;;;;17.23;13.73;;;;;;;2.11;75.22;103356.91;5095156;28;20186;-69
2023/01/24 03:06:53;;;;;;;17.77;13.73;;;;;;;2.07;75.58;103357.75;5095878;28;20727;-69
2023/01/24 03:09:33;;;;;;;16.03;12.90;;;;;;;2.10;75.07;103348.97;5095021;28;20209;-68
2023/01/24 03:36:52;;;;;;;11.97;10.87;;;;;;;2.03;74.22;103347.16;5098545;28;20185;-69
2023/01/24 03:42:03;;;;;;;13.50;12.37;;;;;;;2.09;73.71;103352.50;5098464;28;20662;-68
2023/01/24 03:44:30;;;;;;;13.00;11.70;;;;;;;2.07;73.82;103348.94;5098380;28;20189;-69
2023/01/24 03:46:57;;;;;;;11.30;10.37;;;;;;;2.02;73.83;103353.31;5098204;28;20713;-69
2023/01/24 03:54:57;;;;;;;18.63;16.03;;;;;;;2.04;74.40;103355.09;5098756;28;20268;-69
2023/01/24 03:57:26;;;;;;;22.50;15.83;;;;;;;2.13;73.79;103354.25;5098051;28;20186;-68
2023/01/24 03:59:54;;;;;;;18.37;15.67;;;;;;;2.07;73.68;103347.19;5098014;28;20200;-68
2023/01/24 04:02:21;;;;;;;22.77;16.80;;;;;;;2.05;74.21;103351.56;5098022;28;20284;-68
2023/01/24 04:07:32;;;;;;;15.57;13.87;;;;;;;2.01;74.28;103348.91;5097730;28;20211;-68
2023/01/24 04:10:03;;;;;;;15.57;14.03;;;;;;;1.96;74.69;103353.28;5081571;28;20185;-68
2023/01/24 04:12:36;;;;;;;18.50;14.97;;;;;;;1.98;74.55;103341.84;5098689;28;20272;-68
2023/01/24 04:15:03;;;;;;;19.03;15.40;;;;;;;1.93;74.94;103340.94;5097621;28;20280;-69
2023/01/24 04:17:30;;;;;;;16.67;13.90;;;;;;;1.95;74.79;103335.66;5097690;28;20214;-68
2023/01/24 04:19:57;;;;;;;17.30;14.30;;;;;;;1.91;74.76;103335.63;5097663;28;20536;-68
2023/01/24 04:22:24;;;;;;;13.77;12.37;;;;;;;1.91;74.94;103342.66;5097505;28;20223;-68
2023/01/24 04:24:53;;;;;;;16.00;13.33;;;;;;;1.88;75.42;103337.38;5097842;28;20719;-69
2023/01/24 04:27:22;;;;;;;15.63;12.83;;;;;;;2.02;74.81;103341.00;5097384;28;20216;-68
2023/01/24 04:30:21;;;;;;;14.93;13.30;;;;;;;1.95;74.91;103339.19;5104786;28;20204;-68
2023/01/24 04:32:51;;;;;;;18.67;15.53;;;;;;;1.96;75.16;103340.94;5098060;28;20533;-69
2023/01/24 04:35:26;;;;;;;15.83;14.13;;;;;;;1.99;74.84;103334.78;5097300;28;20306;-69
2023/01/24 04:38:01;;;;;;;17.53;13.97;;;;;;;1.97;74.73;103344.50;5097264;28;20262;-69
2023/01/24 04:40:35;;;;;;;17.13;13.83;;;;;;;1.91;75.06;103345.31;5097202;28;20196;-69
2023/01/24 04:43:02;;;;;;;14.57;13.10;;;;;;;1.91;75.67;103346.19;5097195;28;20296;-69
2023/01/24 04:45:29;;;;;;;16.53;13.87;;;;;;;1.99;75.45;103343.63;5097127;28;20682;-69
2023/01/24 04:47:57;;;;;;;15.03;13.17;;;;;;;1.95;75.59;103335.66;5096955;28;20229;-69
2023/01/24 04:50:23;;;;;;;17.37;12.67;;;;;;;2.00;75.50;103339.22;5115296;28;20646;-69
2023/01/24 04:52:50;;;;;;;18.43;14.77;;;;;;;1.97;75.12;103337.44;5097849;28;20197;-69
2023/01/24 04:55:17;;;;;;;21.27;13.90;;;;;;;1.91;74.79;103342.66;5115232;28;20276;-69
2023/01/24 04:57:43;;;;;;;17.27;13.97;;;;;;;1.95;75.33;103341.81;5096843;28;20215;-69
2023/01/24 05:00:10;;;;;;;18.20;13.47;;;;;;;1.95;75.05;103352.41;5096852;28;20212;-69
2023/01/24 05:02:37;;;;;;;18.87;15.73;;;;;;;1.95;74.88;103349.75;5096823;28;20201;-69
2023/01/24 05:05:05;;;;;;;18.00;15.03;;;;;;;1.93;75.35;103351.50;5096780;28;20246;-69
2023/01/24 05:07:32;;;;;;;18.13;14.90;;;;;;;1.91;75.20;103350.59;5114846;28;20711;-69
2023/01/24 05:10:05;;;;;;;16.13;14.43;;;;;;;1.98;74.82;103355.06;5097435;28;20581;-69
2023/01/24 05:12:32;;;;;;;15.13;13.50;;;;;;;1.92;75.17;103353.25;5096558;28;20190;-69
2023/01/24 05:15:04;;;;;;;13.93;12.47;;;;;;;1.98;74.85;103355.06;5097147;28;20184;-69
2023/01/24 05:17:31;;;;;;;18.07;15.50;;;;;;;2.00;75.17;103349.78;5096525;28;20190;-68
2023/01/24 05:19:57;;;;;;;16.60;14.00;;;;;;;1.94;74.76;103355.94;5096510;28;20193;-68
2023/01/24 05:22:23;;;;;;;28.03;16.20;;;;;;;2.05;75.09;103353.34;5096198;28;20243;-68
2023/01/24 05:24:50;;;;;;;21.77;17.00;;;;;;;2.02;75.23;103353.31;5096395;28;20573;-68
2023/01/24 05:27:16;;;;;;;22.30;17.20;;;;;;;1.98;75.56;103360.34;5114830;28;20236;-68
2023/01/24 05:29:49;;;;;;;20.23;15.83;;;;;;;1.91;75.55;103361.16;5097102;28;20178;-68
2023/01/24 05:32:16;;;;;;;19.17;15.60;;;;;;;1.96;75.60;103359.44;5114532;28;20192;-69
2023/01/24 05:34:42;;;;;;;22.87;16.53;;;;;;;1.96;75.77;103367.38;5096167;28;20189;-69
2023/01/24 05:37:08;;;;;;;22.20;15.73;;;;;;;2.04;75.13;103355.09;5096231;28;20272;-69
2023/01/24 05:39:38;;;;;;;22.93;16.47;;;;;;;1.97;75.31;103365.63;5096003;28;20220;-68
2023/01/24 05:42:04;;;;;;;18.77;16.13;;;;;;;2.02;75.22;103370.06;5096065;28;20195;-68
2023/01/24 05:44:39;;;;;;;25.53;18.17;;;;;;;2.00;75.40;103371.81;5096042;28;20282;-68
2023/01/24 05:47:05;;;;;;;20.80;16.63;;;;;;;1.96;75.63;103372.66;5114189;28;20212;-68
2023/01/24 05:49:35;;;;;;;24.07;17.53;;;;;;;2.03;75.18;103371.81;5096023;28;20240;-68
2023/01/24 05:52:02;;;;;;;24.03;17.47;;;;;;;1.99;75.41;103377.97;5095951;28;20227;-68
2023/01/24 05:54:39;;;;;;;26.13;17.33;;;;;;;1.96;76.11;103379.69;5095885;28;20682;-69
2023/01/24 05:57:20;;;;;;;34.83;18.27;;;;;;;2.04;75.16;103385.94;5095784;28;20183;-69
2023/01/24 06:00:06;;;;;;;26.23;17.07;;;;;;;1.99;75.43;103388.56;5114319;28;20176;-69
2023/01/24 06:02:40;;;;;;;24.03;15.83;;;;;;;2.06;75.34;103392.09;5114028;28;20178;-69
2023/01/24 06:05:08;;;;;;;21.80;15.70;;;;;;;2.04;75.46;103384.19;5095695;28;20194;-69
2023/01/24 06:07:34;;;;;;;25.33;17.50;;;;;;;2.08;74.85;103385.06;5095845;28;20216;-68
2023/01/24 06:10:01;;;;;;;20.27;16.23;;;;;;;1.97;75.00;103386.78;5095609;28;20189;-69
2023/01/24 06:12:31;;;;;;;25.20;17.60;;;;;;;1.97;75.04;103394.69;5095754;28;20195;-68
2023/01/24 06:14:58;;;;;;;25.40;17.33;;;;;;;1.99;74.83;103393.84;5095715;28;20231;-68
2023/01/24 06:17:24;;;;;;;24.13;17.23;;;;;;;1.97;74.76;103402.63;5095506;28;20274;-68
2023/01/24 06:19:51;;;;;;;23.90;17.30;;;;;;;1.88;75.16;103404.31;5114093;28;20268;-68
2023/01/24 06:22:25;;;;;;;24.37;17.90;;;;;;;2.00;74.84;103398.22;5095976;28;20188;-68
2023/01/24 06:24:51;;;;;;;20.70;16.30;;;;;;;1.93;75.03;103407.00;5095498;28;20644;-68
2023/01/24 06:27:29;;;;;;;19.83;15.60;;;;;;;1.97;74.70;103408.78;5095290;28;20241;-68
2023/01/24 06:29:56;;;;;;;22.17;16.13;;;;;;;1.94;74.83;103413.16;5113901;28;20532;-69
2023/01/24 06:33:05;;;;;;;22.87;16.27;;;;;;;1.96;74.58;103409.66;5113838;28;20189;-69
2023/01/24 06:35:42;;;;;;;19.37;15.50;;;;;;;1.91;74.80;103412.25;5114134;28;20181;-69
2023/01/24 06:38:19;;;;;;;17.93;15.20;;;;;;;1.86;75.46;103413.09;5113723;28;20209;-69
2023/01/24 06:40:45;;;;;;;18.87;13.67;;;;;;;1.90;75.03;103413.13;5113440;28;20171;-69
2023/01/24 06:43:12;;;;;;;19.10;14.97;;;;;;;1.88;75.17;103419.28;5113511;28;20186;-69
2023/01/24 06:45:38;;;;;;;17.83;15.60;;;;;;;1.86;75.19;103421.03;5095684;28;20193;-69
2023/01/24 06:48:05;;;;;;;19.47;14.63;;;;;;;1.92;75.16;103426.38;5113343;28;20222;-69
2023/01/24 06:50:33;;;;;;;18.97;15.10;;;;;;;1.95;74.79;103426.38;5113890;28;20193;-69
2023/01/24 06:53:00;;;;;;;18.37;15.33;;;;;;;1.92;75.08;103427.25;5114076;28;20166;-69
2023/01/24 06:55:26;;;;;;;17.77;15.17;;;;;;;1.88;75.07;103432.50;5113925;28;20697;-69
2023/01/24 06:58:00;;;;;;;16.67;13.93;;;;;;;1.88;75.19;103436.00;5113621;28;20709;-69
2023/01/24 07:00:27;;;;;;;24.67;14.83;;;;;;;1.89;75.16;103436.88;5113686;28;20187;-69
2023/01/24 07:03:01;;;;;;;16.90;13.50;;;;;;;1.85;74.98;103432.47;5113920;28;20185;-69
2023/01/24 07:05:27;;;;;;;15.27;13.80;;;;;;;1.83;75.17;103434.22;5114139;28;20192;-69
2023/01/24 07:07:54;;;;;;;16.67;13.27;;;;;;;1.79;75.62;103427.13;5117152;28;20219;-69
2023/01/24 07:10:21;;;;;;;13.73;12.33;;;;;;;1.83;74.98;103432.44;5117267;28;20731;-69
2023/01/24 07:12:47;;;;;;;13.60;12.20;;;;;;;1.85;74.95;103440.41;5117538;28;20546;-69
2023/01/24 07:15:14;;;;;;;18.80;13.83;;;;;;;1.82;74.90;103438.63;5117231;28;20178;-69
2023/01/24 07:17:40;;;;;;;15.93;13.90;;;;;;;1.83;74.27;103432.44;5117018;28;20293;-69
2023/01/24 07:20:09;;;;;;;14.20;12.80;;;;;;;1.82;74.76;103437.72;5117352;28;20674;-69
2023/01/24 07:22:37;;;;;;;21.53;14.10;;;;;;;1.82;74.55;103443.91;5116879;28;20208;-69
2023/01/24 07:25:05;;;;;;;17.77;13.10;;;;;;;1.88;74.45;103445.69;5117239;28;20169;-69
2023/01/24 07:27:32;;;;;;;15.83;12.80;;;;;;;1.79;75.00;103443.84;5116799;28;20224;-69
2023/01/24 07:29:58;;;;;;;16.70;13.30;;;;;;;1.78;74.77;103441.22;5116843;28;20186;-69
2023/01/24 07:32:25;;;;;;;16.33;13.10;;;;;;;1.70;75.12;103446.44;5117109;28;20189;-69
2023/01/24 07:34:51;;;;;;;14.37;12.83;;;;;;;1.80;75.14;103448.28;5116887;28;20651;-69
2023/01/24 07:37:21;;;;;;;15.97;14.27;;;;;;;1.86;74.75;103444.81;5116881;28;20192;-68
2023/01/24 07:39:47;;;;;;;20.77;15.23;;;;;;;1.95;74.48;103452.81;5116673;28;20190;-69
2023/01/24 07:42:14;;;;;;;15.27;13.63;;;;;;;1.84;74.44;103447.41;5116665;28;20555;-69
2023/01/24 07:44:40;;;;;;;16.07;13.93;;;;;;;1.91;74.46;103451.88;5116661;28;20186;-69
2023/01/24 07:47:06;;;;;;;17.17;14.23;;;;;;;1.83;74.54;103458.00;5116452;28;20209;-69
2023/01/24 07:49:33;;;;;;;15.47;12.00;;;;;;;1.84;74.37;103462.41;5116402;28;20208;-69
2023/01/24 07:51:59;;;;;;;23.10;13.60;;;;;;;1.88;74.56;103461.56;5116434;28;20224;-69
2023/01/24 07:54:25;;;;;;;17.07;13.67;;;;;;;1.89;74.84;103460.66;5116684;28;20192;-69
2023/01/24 07:56:52;;;;;;;21.03;14.20;;;;;;;1.91;74.67;103465.09;5116406;28;20181;-69
2023/01/24 07:59:18;;;;;;;20.60;14.03;;;;;;;1.89;74.37;103469.50;5116378;28;20215;-69
2023/01/24 08:02:02;;;;;;;16.17;14.40;;;;;;;1.85;74.72;103466.81;5116203;28;20181;-69
2023/01/24 08:04:28;;;;;;;21.60;14.87;;;;;;;1.81;74.48;103468.53;5116731;28;20186;-69
2023/01/24 08:09:40;;;;;;;20.70;14.87;;;;;;;1.88;74.87;103472.13;5116420;28;20197;-69
2023/01/24 08:12:06;;;;;;;20.93;15.40;;;;;;;1.83;74.50;103477.38;5116080;28;20181;-69
2023/01/24 08:14:32;;;;;;;19.97;15.10;;;;;;;1.87;74.64;103471.25;5116552;28;20200;-69
2023/01/24 08:16:59;;;;;;;25.97;17.47;;;;;;;1.83;74.63;103476.50;5115605;28;20174;-69
2023/01/24 08:19:25;;;;;;;23.40;15.40;;;;;;;1.86;75.02;103481.78;5115899;28;20211;-70
2023/01/24 08:22:11;;;;;;;18.17;15.07;;;;;;;1.90;74.22;103478.31;5115687;28;20181;-69
2023/01/24 08:24:38;;;;;;;20.37;15.40;;;;;;;1.91;74.67;103483.59;5116177;28;20171;-70
2023/01/24 08:27:05;;;;;;;20.33;15.00;;;;;;;1.92;74.73;103484.50;5116033;28;20227;-69
2023/01/24 08:29:31;;;;;;;17.80;14.47;;;;;;;1.91;74.91;103477.44;5115710;28;20571;-69
2023/01/24 08:31:58;;;;;;;14.90;13.20;;;;;;;1.88;74.51;103480.94;5115719;28;20188;-69
2023/01/24 08:34:25;;;;;;;21.50;14.23;;;;;;;1.86;74.49;103485.31;5115546;28;20185;-70
2023/01/24 08:36:51;;;;;;;17.77;15.27;;;;;;;1.88;74.53;103494.16;5115504;28;20190;-70
2023/01/24 08:39:18;;;;;;;21.80;15.83;;;;;;;1.98;74.40;103494.22;5115569;28;20633;-69
2023/01/24 08:41:53;;;;;;;25.07;17.10;;;;;;;1.98;74.25;103494.22;5116080;28;20508;-69
2023/01/24 08:44:20;;;;;;;21.67;16.03;;;;;;;1.92;74.63;103493.31;5115697;28;20272;-69
2023/01/24 08:46:46;;;;;;;21.33;14.90;;;;;;;1.94;74.25;103495.06;5115832;28;20566;-69
2023/01/24 08:49:13;;;;;;;23.93;16.40;;;;;;;1.93;74.03;103502.13;5115437;28;20240;-69
2023/01/24 08:51:39;;;;;;;17.90;14.67;;;;;;;1.97;74.17;103505.69;5115346;28;20189;-69
2023/01/24 08:54:06;;;;;;;22.57;16.00;;;;;;;2.04;74.07;103510.16;5115278;28;20673;-69
2023/01/24 08:56:33;;;;;;;21.17;16.83;;;;;;;1.97;74.33;103503.94;5115176;28;20189;-69
2023/01/24 08:59:00;;;;;;;19.20;16.33;;;;;;;1.98;74.12;103504.81;5115092;28;20197;-69
2023/01/24 09:01:26;;;;;;;23.73;16.83;;;;;;;2.06;74.17;103518.97;5115372;28;20274;-69
2023/01/24 09:03:56;;;;;;;23.93;16.33;;;;;;;2.05;73.66;103511.91;5115518;28;20276;-69
2023/01/24 09:06:23;;;;;;;20.00;16.20;;;;;;;2.10;73.65;103512.84;5115611;28;20619;-69
2023/01/24 09:08:52;;;;;;;22.37;16.70;;;;;;;2.14;73.95;103512.00;5114818;28;20227;-69
2023/01/24 09:11:19;;;;;;;27.40;18.07;;;;;;;2.14;74.16;103522.56;5114977;28;20589;-69
2023/01/24 09:13:46;;;;;;;24.13;16.30;;;;;;;2.22;74.17;103518.22;5114879;28;20214;-69
2023/01/24 09:16:12;;;;;;;31.83;19.13;;;;;;;2.19;73.15;103514.69;5114853;28;20190;-69
2023/01/24 09:18:39;;;;;;;29.90;18.80;;;;;;;2.09;73.79;103511.97;5114783;28;20193;-69
2023/01/24 09:21:06;;;;;;;25.73;17.97;;;;;;;2.09;73.22;103511.97;5114761;28;20221;-69
2023/01/24 09:23:33;;;;;;;24.93;17.50;;;;;;;2.16;73.36;103519.97;5114559;28;20193;-69
2023/01/24 09:26:00;;;;;;;27.93;18.27;;;;;;;2.16;73.40;103526.13;5114623;28;20181;-69
2023/01/24 09:28:27;;;;;;;28.73;18.17;;;;;;;2.16;73.70;103518.19;5113941;28;20215;-69
2023/01/24 09:30:53;;;;;;;34.30;21.13;;;;;;;2.17;73.27;103522.59;5114516;28;20227;-69
2023/01/24 09:33:19;;;;;;;30.40;19.77;;;;;;;2.15;73.61;103528.75;5114429;28;20189;-69
2023/01/24 09:35:58;;;;;;;30.10;20.57;;;;;;;2.20;73.52;103532.31;5096290;28;20181;-69
2023/01/24 09:38:27;;;;;;;26.87;18.80;;;;;;;2.22;73.39;103526.16;5114709;28;20648;-69
2023/01/24 09:41:07;;;;;;;25.90;18.30;;;;;;;2.11;73.22;103527.84;5114342;28;20196;-70
2023/01/24 09:43:58;;;;;;;26.73;18.63;;;;;;;2.14;73.56;103530.50;5114630;28;20171;-70
2023/01/24 09:46:37;;;;;;;30.83;19.50;;;;;;;2.19;73.87;103526.13;5114557;28;20218;-69
2023/01/24 09:49:07;;;;;;;21.50;17.37;;;;;;;2.14;73.44;103530.50;5115021;28;20219;-69
2023/01/24 09:51:38;;;;;;;23.47;18.20;;;;;;;2.11;73.49;103522.56;5114137;28;20186;-69
2023/01/24 09:54:08;;;;;;;21.60;16.43;;;;;;;2.15;74.04;103523.47;5114709;28;20179;-69
2023/01/24 09:56:42;;;;;;;24.30;17.20;;;;;;;2.22;73.38;103528.81;5114653;28;20189;-69
2023/01/24 09:59:18;;;;;;;26.00;16.30;;;;;;;2.24;73.46;103527.06;5114038;28;20200;-69
2023/01/24 10:01:47;;;;;;;22.97;17.70;;;;;;;2.24;73.67;103526.19;5114356;28;20188;-69
2023/01/24 10:04:34;;;;;;;28.73;20.20;;;;;;;2.28;73.49;103522.69;5113935;28;20555;-69
2023/01/24 10:07:23;;;;;;;31.40;19.70;;;;;;;2.29;73.03;103533.25;5114272;28;20568;-69
2023/01/24 10:10:12;;;;;;;81.07;22.43;;;;;;;2.23;73.04;103529.72;5103117;28;20211;-69
2023/01/24 10:12:57;;;;;;;37.33;19.60;;;;;;;2.29;72.94;103541.19;5113815;28;20221;-70
2023/01/24 10:15:36;;;;;;;24.40;17.90;;;;;;;2.26;73.39;103530.59;5114111;28;20194;-69
2023/01/24 10:18:28;;;;;;;28.73;19.63;;;;;;;2.24;73.30;103527.06;5114144;28;20211;-69
2023/01/24 10:21:21;;;;;;;33.77;20.47;;;;;;;2.29;73.44;103527.09;5114638;28;20188;-69
2023/01/24 10:23:52;;;;;;;36.73;22.97;;;;;;;2.37;73.29;103525.41;5113814;28;20661;-69
2023/01/24 10:26:21;;;;;;;33.80;23.57;;;;;;;2.34;72.78;103533.31;5114015;28;20173;-69
2023/01/24 10:29:06;;;;;;;38.67;25.53;;;;;;;2.37;72.61;103527.16;5113860;28;20209;-69
2023/01/24 10:31:41;;;;;;;42.93;25.70;;;;;;;2.44;72.31;103528.97;5113709;28;20178;-69
2023/01/24 10:34:26;;;;;;;34.27;22.33;;;;;;;2.39;72.88;103531.56;5114056;28;20174;-69
2023/01/24 10:37:05;;;;;;;42.87;23.77;;;;;;;2.46;73.11;103525.47;5114258;28;20187;-70
2023/01/24 10:39:32;;;;;;;33.27;22.33;;;;;;;2.48;72.70;103529.00;5115671;28;20207;-69
2023/01/24 10:41:58;;;;;;;33.03;21.37;;;;;;;2.31;72.99;103533.28;5117981;28;20190;-69
2023/01/24 10:44:27;;;;;;;28.10;21.13;;;;;;;2.36;72.92;103530.69;5118112;28;20193;-69
2023/01/24 10:47:04;;;;;;;27.17;20.47;;;;;;;2.27;73.43;103528.84;5118399;28;20286;-69
2023/01/24 10:49:35;;;;;;;29.10;20.33;;;;;;;2.27;73.41;103529.72;5118010;28;20216;-69
2023/01/24 10:52:17;;;;;;;32.70;23.00;;;;;;;2.33;73.06;103524.50;5117805;28;20180;-69
2023/01/24 10:54:55;;;;;;;37.33;21.77;;;;;;;2.33;72.75;103521.84;5117582;28;20272;-69
2023/01/24 10:57:40;;;;;;;33.10;22.87;;;;;;;2.41;73.35;103527.19;5118099;28;20191;-69
2023/01/24 11:00:25;;;;;;;36.70;23.93;;;;;;;2.48;73.45;103525.47;5117515;28;20177;-69
2023/01/24 11:02:54;;;;;;;35.07;23.47;;;;;;;2.45;73.23;103530.75;5117733;28;20173;-69
2023/01/24 11:05:22;;;;;;;34.07;23.23;;;;;;;2.48;73.16;103520.19;5117331;28;20186;-69
2023/01/24 11:07:52;;;;;;;30.53;22.47;;;;;;;2.49;72.45;103522.88;5117277;28;20248;-69
2023/01/24 11:10:31;;;;;;;27.90;20.50;;;;;;;2.52;73.20;103516.72;5117516;28;20188;-68
2023/01/24 11:12:59;;;;;;;28.40;19.53;;;;;;;2.66;72.33;103514.13;5117503;28;20183;-69
2023/01/24 11:15:30;;;;;;;28.17;19.10;;;;;;;2.69;72.37;103511.53;5117745;28;20181;-69
2023/01/24 11:18:13;;;;;;;26.67;18.60;;;;;;;2.56;72.25;103510.53;5117470;28;20294;-69
2023/01/24 11:20:42;;;;;;;30.33;20.30;;;;;;;2.63;71.88;103508.81;5117672;28;20175;-69
2023/01/24 11:23:14;;;;;;;29.50;22.17;;;;;;;2.47;73.03;103507.84;5117034;28;20197;-69
2023/01/24 11:25:58;;;;;;;32.43;23.60;;;;;;;2.41;72.15;103511.31;5117500;28;20263;-69
2023/01/24 11:28:26;;;;;;;37.43;22.10;;;;;;;2.54;72.53;103505.25;5117303;28;20202;-70
2023/01/24 11:30:56;;;;;;;31.33;22.50;;;;;;;2.60;72.66;103506.16;5117172;28;20180;-69
2023/01/24 11:33:38;;;;;;;34.30;23.30;;;;;;;2.55;72.73;103508.78;5117080;28;20235;-69
2023/01/24 11:36:26;;;;;;;38.40;26.07;;;;;;;2.62;71.76;103504.44;5117147;28;20180;-69
2023/01/24 11:38:56;;;;;;;36.00;22.93;;;;;;;2.57;71.84;103504.41;5117053;28;20563;-69
2023/01/24 11:41:25;;;;;;;27.43;21.73;;;;;;;2.61;71.66;103500.00;5116685;28;20224;-69
2023/01/24 11:44:25;;;;;;;31.27;22.63;;;;;;;2.58;71.86;103500.84;5116588;28;20189;-69
2023/01/24 11:47:07;;;;;;;30.20;21.27;;;;;;;2.49;72.50;103503.44;5116634;28;20313;-69
2023/01/24 11:50:02;;;;;;;32.57;22.43;;;;;;;2.49;71.64;103499.06;5116468;28;20214;-69
2023/01/24 11:52:50;;;;;;;32.97;22.47;;;;;;;2.43;71.69;103495.47;5115766;28;20270;-69
2023/01/24 11:55:38;;;;;;;35.03;23.93;;;;;;;2.52;72.33;103492.91;5116413;28;20179;-69
2023/01/24 11:58:19;;;;;;;35.20;22.53;;;;;;;2.51;72.35;103486.72;5116246;28;20205;-69
2023/01/24 12:01:14;;;;;;;41.17;26.83;;;;;;;2.57;72.20;103487.66;5116528;28;20179;-69
2023/01/24 12:04:13;;;;;;;35.03;23.17;;;;;;;2.54;72.11;103484.09;5098535;28;20179;-69
2023/01/24 12:06:50;;;;;;;31.87;22.23;;;;;;;2.54;72.39;103467.34;5071623;28;20655;-69
2023/01/24 12:09:22;;;;;;;34.20;22.17;;;;;;;2.59;71.73;103476.19;5116059;28;20205;-68
2023/01/24 12:12:05;;;;;;;32.33;21.70;;;;;;;2.62;71.38;103472.69;5116068;28;20271;-69
2023/01/24 12:15:09;;;;;;;31.53;21.57;;;;;;;2.48;72.00;103469.94;5116399;28;20255;-69
2023/01/24 12:18:08;;;;;;;31.93;20.97;;;;;;;2.52;71.85;103462.03;5105173;28;20282;-69
2023/01/24 12:21:09;;;;;;;38.33;25.73;;;;;;;2.58;71.72;103452.38;5115895;28;20655;-69
2023/01/24 12:23:58;;;;;;;31.43;23.73;;;;;;;2.72;72.12;103451.56;5115719;28;20205;-69